createdAt,value
2022-08-20T00:01:12.918Z,41.92
2022-08-20T00:06:14.605Z,43.00
2022-08-20T00:11:19.340Z,44.18
2022-08-20T00:16:20.278Z,43.63
2022-08-20T00:21:20.277Z,42.59
2022-08-20T00:26:21.243Z,42.63
2022-08-20T00:31:22.466Z,42.27
2022-08-20T00:36:22.188Z,42.30
2022-08-20T00:41:32.627Z,42.66
2022-08-20T00:46:32.218Z,42.56
2022-08-20T00:51:38.340Z,43.07
2022-08-20T00:56:39.499Z,42.78
2022-08-20T01:01:54.927Z,42.81
2022-08-20T01:06:55.502Z,42.85
2022-08-20T01:11:56.524Z,43.37
2022-08-20T01:16:59.828Z,43.04
2022-08-20T01:22:01.618Z,44.34
2022-08-20T01:27:04.316Z,43.80
2022-08-20T01:32:03.205Z,42.98
2022-08-20T01:37:02.266Z,43.44
2022-08-20T01:42:08.766Z,43.67
2022-08-20T01:47:16.024Z,44.05
2022-08-20T01:52:21.325Z,45.13
2022-08-20T01:57:26.895Z,44.66
2022-08-20T02:02:27.548Z,44.50
2022-08-20T02:07:26.609Z,44.03
2022-08-20T02:12:27.512Z,44.09
2022-08-20T02:17:26.970Z,44.45
2022-08-20T02:22:31.256Z,44.49
2022-08-20T02:27:32.522Z,44.35
2022-08-20T02:32:34.455Z,44.78
2022-08-20T02:37:33.518Z,44.99
2022-08-20T02:42:33.799Z,46.32
2022-08-20T02:47:32.649Z,46.90
2022-08-20T02:52:31.805Z,48.24
2022-08-20T02:57:30.931Z,47.56
2022-08-20T03:02:32.194Z,46.76
2022-08-20T03:07:31.044Z,46.63
2022-08-20T03:12:30.088Z,46.83
2022-08-20T03:17:30.376Z,47.45
2022-08-20T03:22:29.416Z,47.84
2022-08-20T03:27:29.985Z,48.02
2022-08-20T03:32:37.750Z,47.85
2022-08-20T03:37:36.891Z,48.95
2022-08-20T03:42:36.726Z,48.46
2022-08-20T03:47:37.273Z,47.96
2022-08-20T03:52:36.282Z,48.71
2022-08-20T03:57:35.815Z,49.09
2022-08-20T04:02:34.818Z,48.91
2022-08-20T04:07:36.787Z,48.10
2022-08-20T04:12:36.517Z,48.26
2022-08-20T04:17:36.329Z,48.06
2022-08-20T04:22:57.533Z,48.15
2022-08-20T04:27:58.901Z,49.20
2022-08-20T04:32:59.609Z,49.80
2022-08-20T04:38:06.724Z,49.26
2022-08-20T04:43:06.886Z,48.47
2022-08-20T04:48:10.595Z,48.25
2022-08-20T04:53:16.918Z,48.50
2022-08-20T04:58:18.911Z,48.38
2022-08-20T05:03:19.292Z,48.47
2022-08-20T05:08:23.190Z,47.83
2022-08-20T05:13:26.782Z,47.59
2022-08-20T05:18:26.948Z,47.63
2022-08-20T05:23:27.183Z,47.93
2022-08-20T05:28:32.726Z,47.65
2022-08-20T05:33:36.200Z,48.37
2022-08-20T05:38:38.371Z,47.95
2022-08-20T05:43:37.329Z,47.93
2022-08-20T05:48:36.751Z,47.62
2022-08-20T05:53:37.794Z,47.71
2022-08-20T05:58:36.389Z,47.13
2022-08-20T06:04:03.847Z,47.09
2022-08-20T06:09:04.196Z,47.47
2022-08-20T06:14:03.983Z,47.31
2022-08-20T06:19:03.044Z,46.94
2022-08-20T06:24:03.448Z,47.25
2022-08-20T06:29:02.709Z,46.97
2022-08-20T06:34:01.979Z,46.56
2022-08-20T06:39:01.161Z,46.44
2022-08-20T06:44:01.517Z,46.21
2022-08-20T06:49:00.878Z,45.87
2022-08-20T06:54:00.062Z,45.59
2022-08-20T06:58:59.399Z,45.42
2022-08-20T07:04:00.801Z,45.39
2022-08-20T07:09:00.140Z,43.88
2022-08-20T07:13:59.543Z,43.21
2022-08-20T07:19:00.185Z,42.31
2022-08-20T07:23:59.273Z,43.36
2022-08-20T07:28:58.187Z,43.14
2022-08-20T07:39:21.944Z,42.33
2022-08-20T07:44:21.783Z,42.23
2022-08-20T07:49:28.945Z,41.15
2022-08-20T07:54:30.571Z,40.87
2022-08-20T07:59:30.607Z,40.95
2022-08-20T08:04:31.062Z,40.04
2022-08-20T08:09:30.170Z,39.34
2022-08-20T08:14:32.709Z,39.27
2022-08-20T08:19:38.965Z,38.48
2022-08-20T08:24:37.889Z,37.95
2022-08-20T08:29:37.190Z,38.07
2022-08-20T08:34:38.247Z,36.75
2022-08-20T08:39:37.246Z,35.78
2022-08-20T08:44:41.524Z,34.91
2022-08-20T08:49:42.035Z,33.88
2022-08-20T08:54:44.550Z,32.84
2022-08-20T08:59:56.191Z,29.66
2022-08-20T09:05:14.796Z,27.55
2022-08-20T09:10:16.156Z,25.17
2022-08-20T09:15:22.954Z,24.59
2022-08-20T09:20:27.161Z,23.72
2022-08-20T09:25:26.594Z,23.34
2022-08-20T09:30:25.471Z,22.31
2022-08-20T09:35:25.836Z,21.73
2022-08-20T09:40:24.939Z,21.45
2022-08-20T09:45:24.313Z,19.67
2022-08-20T09:50:24.141Z,19.58
2022-08-20T09:55:32.891Z,18.94
2022-08-20T10:00:32.073Z,18.55
2022-08-20T10:05:31.890Z,18.70
2022-08-20T10:10:32.378Z,18.29
2022-08-20T10:15:32.001Z,17.34
2022-08-20T10:20:43.055Z,16.56
2022-08-20T10:26:15.647Z,16.51
2022-08-20T10:31:29.182Z,17.44
2022-08-20T10:36:29.367Z,17.83
2022-08-20T10:41:29.690Z,18.43
2022-08-20T10:46:28.887Z,17.75
2022-08-20T10:51:32.252Z,18.85
2022-08-20T10:56:33.257Z,18.33
2022-08-20T11:01:36.150Z,18.31
2022-08-20T11:06:35.759Z,17.52
2022-08-20T11:11:36.193Z,17.48
2022-08-20T11:16:38.353Z,16.95
2022-08-20T11:21:37.506Z,16.42
2022-08-20T11:26:38.023Z,16.54
2022-08-20T11:31:36.997Z,16.88
2022-08-20T11:36:36.658Z,16.52
2022-08-20T11:41:35.623Z,16.16
2022-08-20T11:46:36.309Z,15.27
2022-08-20T11:51:39.961Z,15.00
2022-08-20T11:56:50.781Z,14.33
2022-08-20T12:02:02.703Z,14.78
2022-08-20T12:07:16.114Z,15.07
2022-08-20T12:12:15.909Z,13.81
2022-08-20T12:17:23.724Z,14.36
2022-08-20T12:22:25.267Z,14.18
2022-08-20T12:27:27.069Z,14.04
2022-08-20T12:32:31.009Z,13.99
2022-08-20T12:37:31.632Z,13.52
2022-08-20T12:48:14.401Z,12.67
2022-08-20T12:53:15.389Z,12.63
2022-08-20T12:58:19.534Z,12.41
2022-08-20T13:03:45.205Z,13.05
2022-08-20T13:08:44.652Z,12.95
2022-08-20T13:14:13.378Z,13.56
2022-08-20T13:19:25.324Z,12.94
2022-08-20T13:24:32.014Z,12.56
2022-08-20T13:29:31.057Z,12.99
2022-08-20T13:34:31.831Z,13.06
2022-08-20T13:39:30.872Z,12.44
2022-08-20T13:44:32.773Z,12.75
2022-08-20T13:49:33.910Z,12.42
2022-08-20T13:54:34.883Z,12.17
2022-08-20T13:59:39.723Z,11.98
2022-08-20T14:04:40.654Z,11.04
2022-08-20T14:09:40.765Z,11.21
2022-08-20T14:14:39.729Z,11.31
2022-08-20T14:19:40.442Z,11.89
2022-08-20T14:24:39.306Z,11.60
2022-08-20T14:29:51.045Z,11.97
2022-08-20T14:34:54.111Z,12.35
2022-08-20T14:39:55.420Z,11.59
2022-08-20T14:44:55.694Z,11.85
2022-08-20T14:49:58.028Z,11.65
2022-08-20T14:54:57.054Z,11.37
2022-08-20T14:59:56.029Z,11.73
2022-08-20T15:04:57.014Z,11.52
2022-08-20T15:09:57.320Z,11.87
2022-08-20T15:14:56.573Z,12.28
2022-08-20T15:20:08.044Z,11.46
2022-08-20T15:25:10.861Z,12.02
2022-08-20T15:30:12.882Z,11.90
2022-08-20T15:35:13.414Z,12.58
2022-08-20T15:40:16.097Z,12.51
2022-08-20T15:45:22.258Z,12.53
2022-08-20T15:50:39.220Z,12.44
2022-08-20T15:55:48.924Z,12.69
2022-08-20T16:00:55.706Z,12.59
2022-08-20T16:06:13.861Z,13.05
2022-08-20T16:11:23.579Z,13.50
2022-08-20T16:16:28.592Z,13.76
2022-08-20T16:21:37.540Z,14.49
2022-08-20T16:26:54.527Z,15.01
2022-08-20T16:32:01.935Z,15.39
2022-08-20T16:37:12.941Z,16.32
2022-08-20T16:42:12.640Z,16.63
2022-08-20T16:47:17.917Z,17.48
2022-08-20T16:52:18.750Z,17.59
2022-08-20T16:57:18.644Z,18.22
2022-08-20T17:02:20.781Z,18.71
2022-08-20T17:07:33.591Z,18.97
2022-08-20T17:12:33.006Z,19.88
2022-08-20T17:17:33.993Z,20.21
2022-08-20T17:22:44.629Z,20.49
2022-08-20T17:27:43.845Z,21.32
2022-08-20T17:32:58.069Z,21.85
2022-08-20T17:38:00.935Z,21.75
2022-08-20T17:43:06.521Z,22.07
2022-08-20T17:48:08.838Z,22.38
2022-08-20T17:53:21.086Z,23.13
2022-08-20T17:58:32.892Z,24.18
2022-08-20T18:03:32.422Z,24.15
2022-08-20T18:08:41.090Z,24.22
2022-08-20T18:13:56.724Z,24.62
2022-08-20T18:18:59.799Z,25.11
2022-08-20T18:24:06.749Z,25.32
2022-08-20T18:29:13.291Z,26.20
2022-08-20T18:34:14.430Z,26.02
2022-08-20T18:39:32.749Z,27.40
2022-08-20T18:44:44.055Z,28.18
2022-08-20T18:49:43.584Z,28.49
2022-08-20T18:54:51.868Z,29.93
2022-08-20T18:59:57.424Z,31.52
2022-08-20T19:04:59.807Z,32.77
2022-08-20T19:10:34.512Z,32.75
2022-08-20T19:15:37.614Z,33.25
2022-08-20T19:20:43.384Z,34.25
2022-08-20T19:25:54.058Z,34.03
2022-08-20T19:31:17.399Z,34.97
2022-08-20T19:36:19.395Z,35.29
2022-08-20T19:41:30.928Z,35.45
2022-08-20T19:46:35.789Z,35.70
2022-08-20T19:51:48.099Z,36.25
2022-08-20T19:56:49.893Z,36.29
2022-08-20T20:01:58.855Z,35.67
2022-08-20T20:06:59.728Z,36.10
2022-08-20T20:12:04.436Z,36.58
2022-08-20T20:17:07.096Z,37.26
2022-08-20T20:22:19.358Z,36.98
2022-08-20T20:27:25.208Z,37.60
2022-08-20T20:32:26.433Z,37.71
2022-08-20T20:37:49.154Z,37.62
2022-08-20T20:43:03.521Z,37.51
2022-08-20T20:48:12.292Z,37.23
2022-08-20T20:53:16.512Z,36.96
2022-08-20T20:58:20.858Z,36.75
2022-08-20T21:03:23.164Z,36.13
2022-08-20T21:08:22.215Z,36.11
2022-08-20T21:13:22.795Z,37.50
2022-08-20T21:18:25.761Z,37.30
2022-08-20T21:23:40.085Z,37.29
2022-08-20T21:28:42.474Z,38.06
2022-08-20T21:33:41.346Z,37.03
2022-08-20T21:38:40.270Z,38.36
2022-08-20T21:43:39.145Z,38.40
2022-08-20T21:48:39.576Z,38.57
2022-08-20T21:53:38.584Z,38.58
2022-08-20T21:58:37.852Z,38.68
2022-08-20T22:03:41.012Z,38.92
2022-08-20T22:08:40.293Z,39.08
2022-08-20T22:13:40.756Z,39.94
2022-08-20T22:18:42.009Z,39.66
2022-08-20T22:23:41.122Z,40.71
2022-08-20T22:28:40.563Z,39.84
2022-08-20T22:33:42.026Z,40.47
2022-08-20T22:38:41.297Z,41.41
2022-08-20T22:43:49.719Z,41.74
2022-08-20T22:48:57.782Z,42.59
2022-08-20T22:53:56.828Z,42.87
2022-08-20T22:58:58.347Z,44.39
2022-08-20T23:04:05.390Z,44.41
2022-08-20T23:09:04.567Z,43.91
2022-08-20T23:14:04.027Z,44.46
2022-08-20T23:19:04.568Z,44.67
2022-08-20T23:24:03.423Z,44.76
2022-08-20T23:29:04.333Z,44.47
2022-08-20T23:34:04.723Z,44.53
2022-08-20T23:39:07.374Z,45.06
2022-08-20T23:44:07.351Z,44.81
2022-08-20T23:49:27.360Z,45.51
2022-08-20T23:54:26.314Z,46.56
2022-08-20T23:59:25.430Z,46.89
